Flight Track Log - Related Links

Times and Time Zones

All times are in EDT time to prevent confusion due to time zone crossing. See the EJA122 flight status page for this flight to view local times or setup timezone preferences in your user account.

Time Position Orientation Groundspeed Altitude Reporting Facility
EDT Latitude Longitude Course Direction KTS MPH feet Rate Location/Type
Tue 02:45:12 PM 38.1989 -122.2903 253° West 155 178 1,100  Level Oakland Center
Tue 02:46:14 PM 38.1419 -122.3211 203° Southwest 221 254 4,200 1,902 Climbing Oakland Center
Tue 02:47:15 PM 38.0864 -122.3619 210° Southwest 240 276 5,000 390 Climbing Oakland Center
Tue 02:48:17 PM 38.0325 -122.4506 232° Southwest 266 306 5,000  Level Oakland Center
Tue 02:49:00 PM 38.1069 -122.6958 253° West  Level FlightAware Approximate
Tue 02:49:18 PM 37.9614 -122.4886 203° Southwest 279 321 5,000  Level Oakland Center
Tue 02:50:00 PM 38.0866 -122.7823 253° West  Level FlightAware Approximate
Tue 02:50:19 PM 37.8883 -122.5278 203° Southwest 275 316 5,000  Level Oakland Center
Tue 02:50:38 PM 37.8667 -122.5333 191° South 272 313 5,100 71 Climbing Northern Cal TRACON
Tue 02:51:44 PM 37.7833 -122.5167 171° South 271 312 5,100  Level Northern Cal TRACON
Tue 02:52:44 PM 37.7167 -122.4833 158° South 271 312 5,100  Level Northern Cal TRACON
Tue 02:53:44 PM 37.6333 -122.4667 171° South 271 312 5,100 -59 Level Northern Cal TRACON
Tue 02:54:25 PM 37.5992 -122.4339 143° Southeast 273 314 5,000 -58 Descending Oakland Center
Tue 02:55:27 PM 37.5336 -122.3861 150° Southeast 275 316 5,000  Level Oakland Center
Tue 02:56:28 PM 37.4681 -122.3386 150° Southeast 273 314 5,000  Level Oakland Center
Tue 02:57:30 PM 37.4042 -122.2919 150° Southeast 270 311 5,000  Level Oakland Center
Tue 02:58:31 PM 37.3339 -122.2283 144° Southeast 265 305 5,000  Level Oakland Center
Tue 02:59:33 PM 37.2933 -122.1489 123° Southeast 273 314 5,000  Level Oakland Center
Tue 03:00:34 PM 37.2692 -122.0608 109° East 267 307 5,000 -146 Level Oakland Center
Tue 03:01:36 PM 37.2508 -121.9683 104° East 271 312 4,700 -927 Descending Oakland Center
Tue 03:02:37 PM 37.2481 -121.8814 92° East 270 311 3,100 -1,171 Descending Oakland Center
Tue 03:03:39 PM 37.2969 -121.8594 20° North 227 261 2,300 -1,171 Descending Oakland Center
Tue 03:04:40 PM 37.3272 -121.8925 319° Northwest 173 199 700 -1,082 Descending Oakland Center
Tue 03:05:41 PM 37.3522 -121.9197 319° Northwest 140 161 100 -590 Descending Oakland Center
Tue 03:07:00 PM 37.3500 -121.9167 North  Level FlightAware Approximate
Tue 03:14:00 PM 37.3627 -121.9291 North  Level Estimated

Login

Don't have an account? Register now (free) for customized features, flight alerts, and more!